sensor_id;sensor_type;location;lat;lon;timestamp;pressure;altitude;pressure_sealevel;temperature;humidity
50282;BME280;36176;51.506;10.272;2023-03-15T00:01:15;58343.00;;;-145.31;100.00
50282;BME280;36176;51.506;10.272;2023-03-15T00:03:43;98867.34;;;0.29;79.36
50282;BME280;36176;51.506;10.272;2023-03-15T00:06:11;98870.81;;;0.29;79.33
50282;BME280;36176;51.506;10.272;2023-03-15T00:08:37;98874.28;;;0.30;79.46
50282;BME280;36176;51.506;10.272;2023-03-15T00:11:05;98863.88;;;0.30;79.94
50282;BME280;36176;51.506;10.272;2023-03-15T00:13:32;98868.16;;;0.32;79.56
50282;BME280;36176;51.506;10.272;2023-03-15T00:16:00;98877.75;;;0.30;80.23
50282;BME280;36176;51.506;10.272;2023-03-15T00:18:29;98876.91;;;0.30;79.81
50282;BME280;36176;51.506;10.272;2023-03-15T00:20:56;98877.75;;;0.30;79.67
50282;BME280;36176;51.506;10.272;2023-03-15T00:23:23;98878.66;;;0.29;79.95
50282;BME280;36176;51.506;10.272;2023-03-15T00:25:51;98876.09;;;0.25;80.03
50282;BME280;36176;51.506;10.272;2023-03-15T00:28:18;98880.59;;;0.15;79.96
50282;BME280;36176;51.506;10.272;2023-03-15T00:30:46;98877.19;;;0.10;80.58
50282;BME280;36176;51.506;10.272;2023-03-15T00:33:13;98877.28;;;0.04;80.67
50282;BME280;36176;51.506;10.272;2023-03-15T00:35:42;98879.94;;;-0.01;81.25
50282;BME280;36176;51.506;10.272;2023-03-15T00:38:10;98880.78;;;0.01;81.33
50282;BME280;36176;51.506;10.272;2023-03-15T00:40:37;98887.69;;;0.04;81.26
50282;BME280;36176;51.506;10.272;2023-03-15T00:43:04;98883.50;;;-0.07;81.59
50282;BME280;36176;51.506;10.272;2023-03-15T00:45:31;98887.03;;;-0.12;81.95
50282;BME280;36176;51.506;10.272;2023-03-15T00:47:58;98889.63;;;-0.11;81.76
50282;BME280;36176;51.506;10.272;2023-03-15T00:50:25;98889.69;;;-0.14;82.37
50282;BME280;36176;51.506;10.272;2023-03-15T00:52:52;98897.44;;;-0.12;82.22
50282;BME280;36176;51.506;10.272;2023-03-15T00:55:19;98899.16;;;-0.10;81.66
50282;BME280;36176;51.506;10.272;2023-03-15T00:57:47;98909.59;;;-0.11;82.32
50282;BME280;36176;51.506;10.272;2023-03-15T01:00:20;98907.06;;;-0.17;82.40
50282;BME280;36176;51.506;10.272;2023-03-15T01:02:51;98906.25;;;-0.21;82.14
50282;BME280;36176;51.506;10.272;2023-03-15T01:05:19;98907.22;;;-0.30;82.80
50282;BME280;36176;51.506;10.272;2023-03-15T01:07:47;98916.84;;;-0.36;82.64
50282;BME280;36176;51.506;10.272;2023-03-15T01:10:14;98909.13;;;-0.43;83.52
50282;BME280;36176;51.506;10.272;2023-03-15T01:12:42;98906.53;;;-0.46;83.09
50282;BME280;36176;51.506;10.272;2023-03-15T01:15:12;98909.19;;;-0.49;83.22
50282;BME280;36176;51.506;10.272;2023-03-15T01:17:39;98915.28;;;-0.51;83.58
50282;BME280;36176;51.506;10.272;2023-03-15T01:20:07;98921.41;;;-0.55;83.97
50282;BME280;36176;51.506;10.272;2023-03-15T01:22:35;98911.88;;;-0.58;84.87
50282;BME280;36176;51.506;10.272;2023-03-15T01:25:02;98920.50;;;-0.51;84.17
50282;BME280;36176;51.506;10.272;2023-03-15T01:27:29;98915.25;;;-0.48;83.90
50282;BME280;36176;51.506;10.272;2023-03-15T01:29:56;98918.69;;;-0.43;83.50
50282;BME280;36176;51.506;10.272;2023-03-15T01:32:23;98914.38;;;-0.47;83.69
50282;BME280;36176;51.506;10.272;2023-03-15T01:34:50;98917.94;;;-0.56;83.88
50282;BME280;36176;51.506;10.272;2023-03-15T01:37:17;98909.34;;;-0.62;84.29
50282;BME280;36176;51.506;10.272;2023-03-15T01:39:44;98921.53;;;-0.66;84.31
50282;BME280;36176;51.506;10.272;2023-03-15T01:42:11;98920.69;;;-0.70;84.38
50282;BME280;36176;51.506;10.272;2023-03-15T01:45:48;98925.06;;;-0.75;85.06
50282;BME280;36176;51.506;10.272;2023-03-15T01:47:51;98922.56;;;-0.81;84.94
50282;BME280;36176;51.506;10.272;2023-03-15T01:50:19;98921.72;;;-0.84;85.35
50282;BME280;36176;51.506;10.272;2023-03-15T01:52:51;98919.16;;;-0.88;85.45
50282;BME280;36176;51.506;10.272;2023-03-15T01:55:18;98916.53;;;-0.88;85.23
50282;BME280;36176;51.506;10.272;2023-03-15T01:57:53;98910.50;;;-0.90;85.32
50282;BME280;36176;51.506;10.272;2023-03-15T02:00:22;98920.97;;;-0.97;85.56
50282;BME280;36176;51.506;10.272;2023-03-15T02:02:59;98913.25;;;-1.05;85.79
50282;BME280;36176;51.506;10.272;2023-03-15T02:05:33;98920.19;;;-1.07;86.67
50282;BME280;36176;51.506;10.272;2023-03-15T02:08:03;98931.41;;;-1.03;86.63
50282;BME280;36176;51.506;10.272;2023-03-15T02:10:52;98921.91;;;-1.03;87.59
50282;BME280;36176;51.506;10.272;2023-03-15T02:13:22;98934.03;;;-1.00;87.25
50282;BME280;36176;51.506;10.272;2023-03-15T02:15:51;98921.78;;;-0.91;87.24
50282;BME280;36176;51.506;10.272;2023-03-15T02:18:19;98926.91;;;-0.83;86.77
50282;BME280;36176;51.506;10.272;2023-03-15T02:23:35;98934.53;;;-0.65;86.19
50282;BME280;36176;51.506;10.272;2023-03-15T02:28:48;98919.66;;;-0.53;85.51
50282;BME280;36176;51.506;10.272;2023-03-15T02:31:16;98923.09;;;-0.51;85.85
50282;BME280;36176;51.506;10.272;2023-03-15T02:33:46;98926.53;;;-0.48;85.00
50282;BME280;36176;51.506;10.272;2023-03-15T02:36:23;98931.66;;;-0.40;84.53
50282;BME280;36176;51.506;10.272;2023-03-15T02:38:51;98930.66;;;-0.31;84.71
50282;BME280;36176;51.506;10.272;2023-03-15T02:41:35;98940.06;;;-0.18;84.45
50282;BME280;36176;51.506;10.272;2023-03-15T02:44:07;98939.09;;;-0.11;84.24
50282;BME280;36176;51.506;10.272;2023-03-15T02:46:37;98941.59;;;-0.02;84.43
50282;BME280;36176;51.506;10.272;2023-03-15T02:49:06;98944.94;;;0.07;83.51
50282;BME280;36176;51.506;10.272;2023-03-15T02:51:34;98946.56;;;0.17;82.45
50282;BME280;36176;51.506;10.272;2023-03-15T02:54:01;98946.41;;;0.29;82.43
50282;BME280;36176;51.506;10.272;2023-03-15T02:56:27;98944.47;;;0.42;81.25
50282;BME280;36176;51.506;10.272;2023-03-15T02:58:55;98955.56;;;0.55;80.68
50282;BME280;36176;51.506;10.272;2023-03-15T03:01:22;98958.88;;;0.64;79.56
50282;BME280;36176;51.506;10.272;2023-03-15T03:03:49;98956.22;;;0.69;80.01
50282;BME280;36176;51.506;10.272;2023-03-15T03:06:17;98959.63;;;0.74;79.26
50282;BME280;36176;51.506;10.272;2023-03-15T03:08:46;98967.28;;;0.83;78.60
50282;BME280;36176;51.506;10.272;2023-03-15T03:11:14;98972.41;;;0.90;78.86
50282;BME280;36176;51.506;10.272;2023-03-15T03:13:42;98978.38;;;0.98;77.87
50282;BME280;36176;51.506;10.272;2023-03-15T03:16:09;98978.25;;;1.05;78.31
50282;BME280;36176;51.506;10.272;2023-03-15T03:18:36;98987.72;;;1.13;77.89
50282;BME280;36176;51.506;10.272;2023-03-15T03:21:05;98984.13;;;1.18;77.35
50282;BME280;36176;51.506;10.272;2023-03-15T03:23:35;98975.38;;;1.21;77.34
50282;BME280;36176;51.506;10.272;2023-03-15T03:26:03;98979.75;;;1.20;77.17
50282;BME280;36176;51.506;10.272;2023-03-15T03:28:36;98982.22;;;1.26;77.13
50282;BME280;36176;51.506;10.272;2023-03-15T03:31:03;98992.56;;;1.33;77.44
50282;BME280;36176;51.506;10.272;2023-03-15T03:33:30;98995.13;;;1.36;77.45
50282;BME280;36176;51.506;10.272;2023-03-15T03:36:00;99002.03;;;1.38;77.05
50282;BME280;36176;51.506;10.272;2023-03-15T03:38:30;99005.47;;;1.42;77.90
50282;BME280;36176;51.506;10.272;2023-03-15T03:40:57;99015.00;;;1.43;78.21
50282;BME280;36176;51.506;10.272;2023-03-15T03:43:24;99021.13;;;1.42;79.58
50282;BME280;36176;51.506;10.272;2023-03-15T03:45:51;99026.44;;;1.36;81.58
50282;BME280;36176;51.506;10.272;2023-03-15T03:48:18;99028.34;;;1.27;83.48
50282;BME280;36176;51.506;10.272;2023-03-15T03:50:45;99025.88;;;1.20;84.81
50282;BME280;36176;51.506;10.272;2023-03-15T03:53:12;99031.25;;;1.09;86.13
50282;BME280;36176;51.506;10.272;2023-03-15T03:55:39;99043.56;;;1.01;87.50
50282;BME280;36176;51.506;10.272;2023-03-15T03:58:08;99040.16;;;0.94;89.01
50282;BME280;36176;51.506;10.272;2023-03-15T04:00:35;99045.47;;;0.90;89.62
50282;BME280;36176;51.506;10.272;2023-03-15T04:03:02;99044.56;;;0.91;89.62
50282;BME280;36176;51.506;10.272;2023-03-15T04:05:29;99044.56;;;0.91;89.98
50282;BME280;36176;51.506;10.272;2023-03-15T04:07:56;99035.00;;;0.91;91.21
50282;BME280;36176;51.506;10.272;2023-03-15T04:10:23;99034.19;;;0.86;91.35
50282;BME280;36176;51.506;10.272;2023-03-15T04:12:53;99044.66;;;0.84;91.12
50282;BME280;36176;51.506;10.272;2023-03-15T04:15:22;99040.31;;;0.85;91.58
50282;BME280;36176;51.506;10.272;2023-03-15T04:17:50;99046.44;;;0.82;91.87
50282;BME280;36176;51.506;10.272;2023-03-15T04:20:23;99044.66;;;0.84;91.60
50282;BME280;36176;51.506;10.272;2023-03-15T04:22:51;99051.66;;;0.82;91.86
50282;BME280;36176;51.506;10.272;2023-03-15T04:25:19;99065.59;;;0.81;92.92
50282;BME280;36176;51.506;10.272;2023-03-15T04:27:46;99063.00;;;0.80;92.68
50282;BME280;36176;51.506;10.272;2023-03-15T04:30:25;99059.47;;;0.84;92.68
50282;BME280;36176;51.506;10.272;2023-03-15T04:32:56;99061.16;;;0.87;92.25
50282;BME280;36176;51.506;10.272;2023-03-15T04:35:27;99054.09;;;0.93;91.77
50282;BME280;36176;51.506;10.272;2023-03-15T04:37:54;99057.53;;;0.95;91.20
50282;BME280;36176;51.506;10.272;2023-03-15T04:40:22;99058.31;;;1.02;91.15
50282;BME280;36176;51.506;10.272;2023-03-15T04:42:50;99067.84;;;1.04;90.84
50282;BME280;36176;51.506;10.272;2023-03-15T04:45:19;99064.34;;;1.05;90.61
50282;BME280;36176;51.506;10.272;2023-03-15T04:47:47;99068.69;;;1.05;91.01
50282;BME280;36176;51.506;10.272;2023-03-15T04:50:15;99067.03;;;0.99;91.79
50282;BME280;36176;51.506;10.272;2023-03-15T04:52:42;99067.97;;;0.95;91.65
50282;BME280;36176;51.506;10.272;2023-03-15T04:55:10;99080.16;;;0.96;91.54
50282;BME280;36176;51.506;10.272;2023-03-15T04:57:37;99084.47;;;0.96;91.56
50282;BME280;36176;51.506;10.272;2023-03-15T05:00:05;99077.50;;;0.98;91.08
50282;BME280;36176;51.506;10.272;2023-03-15T05:02:33;99076.56;;;1.02;90.94
50282;BME280;36176;51.506;10.272;2023-03-15T05:05:01;99085.25;;;1.04;90.72
50282;BME280;36176;51.506;10.272;2023-03-15T05:07:28;99079.97;;;1.07;90.66
50282;BME280;36176;51.506;10.272;2023-03-15T05:09:55;99086.03;;;1.09;90.93
50282;BME280;36176;51.506;10.272;2023-03-15T05:12:22;99093.88;;;1.08;91.10
50282;BME280;36176;51.506;10.272;2023-03-15T05:14:50;99096.59;;;1.01;90.84
50282;BME280;36176;51.506;10.272;2023-03-15T05:17:19;99097.38;;;1.06;91.05
50282;BME280;36176;51.506;10.272;2023-03-15T05:19:48;99100.00;;;1.06;90.62
50282;BME280;36176;51.506;10.272;2023-03-15T05:22:15;99105.13;;;1.13;90.53
50282;BME280;36176;51.506;10.272;2023-03-15T05:24:42;99105.13;;;1.13;90.09
50282;BME280;36176;51.506;10.272;2023-03-15T05:27:10;99110.28;;;1.16;90.05
50282;BME280;36176;51.506;10.272;2023-03-15T05:29:39;99116.31;;;1.21;89.74
50282;BME280;36176;51.506;10.272;2023-03-15T05:32:06;99118.00;;;1.22;89.61
50282;BME280;36176;51.506;10.272;2023-03-15T05:34:33;99124.13;;;1.22;89.85
50282;BME280;36176;51.506;10.272;2023-03-15T05:37:00;99124.00;;;1.28;89.30
50282;BME280;36176;51.506;10.272;2023-03-15T05:39:27;99134.38;;;1.35;89.31
50282;BME280;36176;51.506;10.272;2023-03-15T05:41:54;99137.81;;;1.37;89.09
50282;BME280;36176;51.506;10.272;2023-03-15T05:44:21;99136.94;;;1.38;88.94
50282;BME280;36176;51.506;10.272;2023-03-15T05:46:48;99141.25;;;1.39;88.65
50282;BME280;36176;51.506;10.272;2023-03-15T05:49:15;99145.53;;;1.43;88.55
50282;BME280;36176;51.506;10.272;2023-03-15T05:51:42;99147.22;;;1.47;88.14
50282;BME280;36176;51.506;10.272;2023-03-15T05:54:09;99160.31;;;1.45;88.68
50282;BME280;36176;51.506;10.272;2023-03-15T05:56:36;99161.16;;;1.46;87.87
50282;BME280;36176;51.506;10.272;2023-03-15T05:59:03;99164.59;;;1.49;87.68
50282;BME280;36176;51.506;10.272;2023-03-15T06:01:30;99165.50;;;1.47;88.19
50282;BME280;36176;51.506;10.272;2023-03-15T06:03:57;99178.50;;;1.52;88.01
50282;BME280;36176;51.506;10.272;2023-03-15T06:06:25;99178.44;;;1.56;88.51
50282;BME280;36176;51.506;10.272;2023-03-15T06:08:52;99191.47;;;1.56;88.77
50282;BME280;36176;51.506;10.272;2023-03-15T06:11:19;99192.34;;;1.58;88.18
50282;BME280;36176;51.506;10.272;2023-03-15T06:13:46;99194.03;;;1.59;89.13
50282;BME280;36176;51.506;10.272;2023-03-15T06:16:13;99201.88;;;1.59;88.07
50282;BME280;36176;51.506;10.272;2023-03-15T06:18:40;99203.69;;;1.56;88.40
50282;BME280;36176;51.506;10.272;2023-03-15T06:21:07;99203.56;;;1.62;88.04
50282;BME280;36176;51.506;10.272;2023-03-15T06:23:34;99210.53;;;1.63;88.47
50282;BME280;36176;51.506;10.272;2023-03-15T06:26:01;99213.06;;;1.67;88.45
50282;BME280;36176;51.506;10.272;2023-03-15T06:28:28;99224.34;;;1.69;88.52
50282;BME280;36176;51.506;10.272;2023-03-15T06:30:55;99227.75;;;1.75;88.57
50282;BME280;36176;51.506;10.272;2023-03-15T06:33:22;99234.66;;;1.79;88.36
50282;BME280;36176;51.506;10.272;2023-03-15T06:35:50;99236.28;;;1.86;88.47
50282;BME280;36176;51.506;10.272;2023-03-15T06:38:17;99239.66;;;1.94;88.41
50282;BME280;36176;51.506;10.272;2023-03-15T06:40:44;99250.84;;;2.01;87.88
50282;BME280;36176;51.506;10.272;2023-03-15T06:43:11;99246.47;;;2.04;88.24
50282;BME280;36176;51.506;10.272;2023-03-15T06:45:44;99244.63;;;2.08;88.23
50282;BME280;36176;51.506;10.272;2023-03-15T06:48:12;99247.31;;;2.03;87.90
50282;BME280;36176;51.506;10.272;2023-03-15T06:50:39;99243.06;;;1.99;87.97
50282;BME280;36176;51.506;10.272;2023-03-15T06:53:13;99250.81;;;2.04;88.19
50282;BME280;36176;51.506;10.272;2023-03-15T06:55:40;99256.00;;;2.05;88.11
50282;BME280;36176;51.506;10.272;2023-03-15T06:58:07;99264.75;;;2.03;88.64
50282;BME280;36176;51.506;10.272;2023-03-15T07:00:34;99263.81;;;2.08;88.18
50282;BME280;36176;51.506;10.272;2023-03-15T07:03:01;99265.53;;;2.11;88.37
50282;BME280;36176;51.506;10.272;2023-03-15T07:05:29;99261.94;;;2.15;87.81
50282;BME280;36176;51.506;10.272;2023-03-15T07:07:56;99265.44;;;2.16;87.96
50282;BME280;36176;51.506;10.272;2023-03-15T07:10:24;99269.78;;;2.15;87.87
50282;BME280;36176;51.506;10.272;2023-03-15T07:12:51;99269.78;;;2.17;88.36
50282;BME280;36176;51.506;10.272;2023-03-15T07:15:18;99274.16;;;2.15;87.88
50282;BME280;36176;51.506;10.272;2023-03-15T07:17:44;99275.91;;;2.16;87.89
50282;BME280;36176;51.506;10.272;2023-03-15T07:20:12;99282.00;;;2.13;88.19
50282;BME280;36176;51.506;10.272;2023-03-15T07:22:39;99288.13;;;2.13;88.10
50282;BME280;36176;51.506;10.272;2023-03-15T07:25:06;99296.63;;;2.25;88.03
50282;BME280;36176;51.506;10.272;2023-03-15T07:27:33;99293.16;;;2.26;87.67
50282;BME280;36176;51.506;10.272;2023-03-15T07:30:00;99300.16;;;2.24;88.11
50282;BME280;36176;51.506;10.272;2023-03-15T07:32:27;99308.97;;;2.18;87.91
50282;BME280;36176;51.506;10.272;2023-03-15T07:34:56;99306.34;;;2.18;88.25
50282;BME280;36176;51.506;10.272;2023-03-15T07:37:29;99309.69;;;2.26;88.21
50282;BME280;36176;51.506;10.272;2023-03-15T07:39:56;99308.63;;;2.38;88.27
50282;BME280;36176;51.506;10.272;2023-03-15T07:42:25;99316.28;;;2.49;88.09
50282;BME280;36176;51.506;10.272;2023-03-15T07:44:52;99324.03;;;2.57;88.04
50282;BME280;36176;51.506;10.272;2023-03-15T07:47:19;99322.13;;;2.65;87.38
50282;BME280;36176;51.506;10.272;2023-03-15T07:49:46;99321.75;;;2.86;86.88
50282;BME280;36176;51.506;10.272;2023-03-15T07:52:13;99335.34;;;3.07;86.94
50282;BME280;36176;51.506;10.272;2023-03-15T07:54:41;99338.59;;;3.18;86.08
50282;BME280;36176;51.506;10.272;2023-03-15T07:57:08;99334.03;;;3.28;85.77
50282;BME280;36176;51.506;10.272;2023-03-15T07:59:35;99333.28;;;3.23;83.43
50282;BME280;36176;51.506;10.272;2023-03-15T08:02:02;99339.16;;;3.35;83.21
50282;BME280;36176;51.506;10.272;2023-03-15T08:04:29;99335.34;;;3.50;81.34
50282;BME280;36176;51.506;10.272;2023-03-15T08:06:56;99338.66;;;3.99;79.85
50282;BME280;36176;51.506;10.272;2023-03-15T08:09:23;99345.03;;;4.26;77.05
50282;BME280;36176;51.506;10.272;2023-03-15T08:11:50;99337.00;;;4.34;77.11
50282;BME280;36176;51.506;10.272;2023-03-15T08:14:17;99340.69;;;4.25;76.57
50282;BME280;36176;51.506;10.272;2023-03-15T08:16:44;99343.00;;;4.37;76.12
50282;BME280;36176;51.506;10.272;2023-03-15T08:19:11;99340.94;;;4.50;76.44
50282;BME280;36176;51.506;10.272;2023-03-15T08:21:38;99343.50;;;4.53;76.02
50282;BME280;36176;51.506;10.272;2023-03-15T08:24:05;99343.81;;;4.77;76.29
50282;BME280;36176;51.506;10.272;2023-03-15T08:26:32;99345.91;;;4.97;75.14
50282;BME280;36176;51.506;10.272;2023-03-15T08:28:59;99351.50;;;5.17;74.42
50282;BME280;36176;51.506;10.272;2023-03-15T08:31:26;99350.94;;;5.37;74.66
50282;BME280;36176;51.506;10.272;2023-03-15T08:33:53;99354.66;;;5.60;71.98
50282;BME280;36176;51.506;10.272;2023-03-15T08:36:20;99357.38;;;5.58;72.80
50282;BME280;36176;51.506;10.272;2023-03-15T08:38:47;99359.53;;;5.73;71.71
50282;BME280;36176;51.506;10.272;2023-03-15T08:41:14;99355.97;;;6.34;72.09
50282;BME280;36176;51.506;10.272;2023-03-15T08:43:41;99360.53;;;7.34;68.18
50282;BME280;36176;51.506;10.272;2023-03-15T08:46:08;99362.16;;;8.30;65.43
50282;BME280;36176;51.506;10.272;2023-03-15T08:48:35;99363.84;;;8.77;63.84
50282;BME280;36176;51.506;10.272;2023-03-15T08:51:04;99370.66;;;10.02;57.91
50282;BME280;36176;51.506;10.272;2023-03-15T08:53:31;99369.75;;;10.22;58.54
50282;BME280;36176;51.506;10.272;2023-03-15T08:55:58;99371.72;;;10.55;55.30
50282;BME280;36176;51.506;10.272;2023-03-15T08:58:25;99371.56;;;11.63;52.34
50282;BME280;36176;51.506;10.272;2023-03-15T09:00:53;99378.38;;;12.33;47.63
50282;BME280;36176;51.506;10.272;2023-03-15T09:03:19;99380.69;;;12.24;48.17
50282;BME280;36176;51.506;10.272;2023-03-15T09:05:48;99380.50;;;11.95;48.59
50282;BME280;36176;51.506;10.272;2023-03-15T09:08:15;99365.25;;;12.15;46.40
50282;BME280;36176;51.506;10.272;2023-03-15T09:10:46;99388.41;;;12.60;43.90
50282;BME280;36176;51.506;10.272;2023-03-15T09:13:13;99393.47;;;13.41;43.42
50282;BME280;36176;51.506;10.272;2023-03-15T09:15:40;99391.88;;;13.23;43.86
50282;BME280;36176;51.506;10.272;2023-03-15T09:18:07;99386.06;;;11.90;43.72
50282;BME280;36176;51.506;10.272;2023-03-15T09:20:34;99396.72;;;10.31;46.40
50282;BME280;36176;51.506;10.272;2023-03-15T09:23:01;99409.41;;;9.25;49.49
50282;BME280;36176;51.506;10.272;2023-03-15T09:25:28;99404.06;;;8.40;51.80
50282;BME280;36176;51.506;10.272;2023-03-15T09:27:55;99409.91;;;7.77;50.77
50282;BME280;36176;51.506;10.272;2023-03-15T09:30:22;99415.66;;;6.88;51.24
50282;BME280;36176;51.506;10.272;2023-03-15T09:32:49;99409.34;;;8.16;53.67
50282;BME280;36176;51.506;10.272;2023-03-15T09:35:18;99407.22;;;10.13;46.61
50282;BME280;36176;51.506;10.272;2023-03-15T09:37:47;99411.84;;;11.71;46.11
50282;BME280;36176;51.506;10.272;2023-03-15T09:40:21;99417.81;;;12.57;43.01
50282;BME280;36176;51.506;10.272;2023-03-15T09:43:18;99420.25;;;13.38;40.05
50282;BME280;36176;51.506;10.272;2023-03-15T09:48:28;99422.19;;;13.65;38.92
50282;BME280;36176;51.506;10.272;2023-03-15T09:51:26;99430.75;;;13.09;39.71
50282;BME280;36176;51.506;10.272;2023-03-15T09:54:22;99434.84;;;13.01;37.65
50282;BME280;36176;51.506;10.272;2023-03-15T09:56:55;99436.50;;;12.71;39.27
50282;BME280;36176;51.506;10.272;2023-03-15T09:59:33;99437.38;;;11.04;39.84
50282;BME280;36176;51.506;10.272;2023-03-15T10:02:13;99429.25;;;9.95;41.57
50282;BME280;36176;51.506;10.272;2023-03-15T10:04:44;99447.34;;;9.02;44.39
50282;BME280;36176;51.506;10.272;2023-03-15T10:07:13;99444.41;;;9.09;47.05
50282;BME280;36176;51.506;10.272;2023-03-15T10:09:41;99455.63;;;9.14;45.61
50282;BME280;36176;51.506;10.272;2023-03-15T10:12:15;99460.75;;;8.97;46.25
50282;BME280;36176;51.506;10.272;2023-03-15T10:18:06;99455.06;;;7.68;48.61
50282;BME280;36176;51.506;10.272;2023-03-15T10:20:46;99459.69;;;7.11;50.34
50282;BME280;36176;51.506;10.272;2023-03-15T10:23:20;99453.38;;;6.60;50.72
50282;BME280;36176;51.506;10.272;2023-03-15T10:25:50;99454.38;;;6.28;52.48
50282;BME280;36176;51.506;10.272;2023-03-15T10:28:23;99452.25;;;6.11;54.46
50282;BME280;36176;51.506;10.272;2023-03-15T10:30:56;99464.22;;;5.90;55.56
50282;BME280;36176;51.506;10.272;2023-03-15T10:33:31;99474.75;;;5.90;58.67
50282;BME280;36176;51.506;10.272;2023-03-15T10:36:00;99481.31;;;5.74;56.88
50282;BME280;36176;51.506;10.272;2023-03-15T10:38:37;99476.25;;;5.68;57.85
50282;BME280;36176;51.506;10.272;2023-03-15T10:41:05;99480.00;;;5.58;58.70
50282;BME280;36176;51.506;10.272;2023-03-15T10:43:35;99489.03;;;5.47;60.71
50282;BME280;36176;51.506;10.272;2023-03-15T10:46:05;99486.75;;;5.68;60.07
50282;BME280;36176;51.506;10.272;2023-03-15T10:48:35;99488.72;;;6.53;58.49
50282;BME280;36176;51.506;10.272;2023-03-15T10:51:18;99487.97;;;7.33;57.04
50282;BME280;36176;51.506;10.272;2023-03-15T10:56:48;99498.28;;;7.12;55.17
50282;BME280;36176;51.506;10.272;2023-03-15T10:59:21;99494.22;;;6.75;54.79
50282;BME280;36176;51.506;10.272;2023-03-15T11:01:52;99491.78;;;6.68;55.07
50282;BME280;36176;51.506;10.272;2023-03-15T11:04:24;99498.50;;;6.50;56.60
50282;BME280;36176;51.506;10.272;2023-03-15T11:07:01;99497.06;;;6.39;57.86
50282;BME280;36176;51.506;10.272;2023-03-15T11:09:46;99506.28;;;6.23;57.45
50282;BME280;36176;51.506;10.272;2023-03-15T11:12:28;99504.66;;;6.19;57.61
50282;BME280;36176;51.506;10.272;2023-03-15T11:14:59;99509.09;;;6.17;57.38
50282;BME280;36176;51.506;10.272;2023-03-15T11:17:31;99508.41;;;7.24;58.96
50282;BME280;36176;51.506;10.272;2023-03-15T11:20:00;99505.22;;;8.17;56.55
50282;BME280;36176;51.506;10.272;2023-03-15T11:22:39;99510.47;;;8.65;54.52
50282;BME280;36176;51.506;10.272;2023-03-15T11:25:13;99504.50;;;8.60;52.84
50282;BME280;36176;51.506;10.272;2023-03-15T11:27:42;99506.16;;;9.29;54.70
50282;BME280;36176;51.506;10.272;2023-03-15T11:30:13;99511.63;;;9.87;51.67
50282;BME280;36176;51.506;10.272;2023-03-15T11:32:42;99524.28;;;9.60;48.82
50282;BME280;36176;51.506;10.272;2023-03-15T11:35:16;99509.72;;;9.70;45.73
50282;BME280;36176;51.506;10.272;2023-03-15T11:37:48;99516.19;;;9.84;47.83
50282;BME280;36176;51.506;10.272;2023-03-15T11:42:57;99510.25;;;9.36;46.29
50282;BME280;36176;51.506;10.272;2023-03-15T11:45:41;99512.94;;;8.46;46.72
50282;BME280;36176;51.506;10.272;2023-03-15T11:48:14;99513.66;;;8.03;49.01
50282;BME280;36176;51.506;10.272;2023-03-15T11:50:43;99509.19;;;8.05;49.28
50282;BME280;36176;51.506;10.272;2023-03-15T11:53:13;99509.41;;;8.22;49.90
50282;BME280;36176;51.506;10.272;2023-03-15T11:55:47;99517.22;;;8.72;49.47
50282;BME280;36176;51.506;10.272;2023-03-15T11:58:44;99519.94;;;9.37;46.93
50282;BME280;36176;51.506;10.272;2023-03-15T12:01:29;99509.78;;;9.69;47.44
50282;BME280;36176;51.506;10.272;2023-03-15T12:04:26;99519.84;;;9.61;43.44
50282;BME280;36176;51.506;10.272;2023-03-15T12:06:55;99515.22;;;8.79;44.37
50282;BME280;36176;51.506;10.272;2023-03-15T12:09:38;99510.84;;;8.07;46.91
50282;BME280;36176;51.506;10.272;2023-03-15T12:17:53;99521.06;;;8.17;48.83
50282;BME280;36176;51.506;10.272;2023-03-15T12:20:29;99526.88;;;8.01;46.71
50282;BME280;36176;51.506;10.272;2023-03-15T12:25:55;99523.75;;;7.40;48.23
50282;BME280;36176;51.506;10.272;2023-03-15T12:28:40;99532.44;;;7.15;47.58
50282;BME280;36176;51.506;10.272;2023-03-15T12:31:12;99537.28;;;6.73;49.26
50282;BME280;36176;51.506;10.272;2023-03-15T12:33:48;99555.75;;;5.78;57.00
50282;BME280;36176;51.506;10.272;2023-03-15T12:36:38;99567.13;;;5.06;60.74
50282;BME280;36176;51.506;10.272;2023-03-15T12:41:47;99565.72;;;4.50;64.70
50282;BME280;36176;51.506;10.272;2023-03-15T12:44:36;99560.41;;;4.93;66.66
50282;BME280;36176;51.506;10.272;2023-03-15T12:47:06;99560.09;;;5.44;64.49
50282;BME280;36176;51.506;10.272;2023-03-15T12:49:40;99564.97;;;5.92;64.61
50282;BME280;36176;51.506;10.272;2023-03-15T12:54:50;99554.34;;;7.44;60.20
50282;BME280;36176;51.506;10.272;2023-03-15T12:57:35;99549.00;;;7.47;59.37
50282;BME280;36176;51.506;10.272;2023-03-15T13:02:45;99547.94;;;7.51;57.17
50282;BME280;36176;51.506;10.272;2023-03-15T13:05:18;99545.91;;;7.86;57.63
50282;BME280;36176;51.506;10.272;2023-03-15T13:14:01;99540.03;;;8.75;51.25
50282;BME280;36176;51.506;10.272;2023-03-15T13:17:06;99549.66;;;8.29;52.54
50282;BME280;36176;51.506;10.272;2023-03-15T13:19:50;99544.56;;;7.74;53.47
50282;BME280;36176;51.506;10.272;2023-03-15T13:22:30;99548.75;;;7.27;54.04
50282;BME280;36176;51.506;10.272;2023-03-15T13:25:18;99563.84;;;6.95;55.28
50282;BME280;36176;51.506;10.272;2023-03-15T13:27:57;99577.31;;;6.54;56.62
50282;BME280;36176;51.506;10.272;2023-03-15T13:30:36;99576.28;;;5.96;58.50
50282;BME280;36176;51.506;10.272;2023-03-15T13:33:25;99570.00;;;5.31;63.49
50282;BME280;36176;51.506;10.272;2023-03-15T13:36:01;99576.03;;;4.99;66.23
50282;BME280;36176;51.506;10.272;2023-03-15T13:38:37;99577.63;;;4.67;66.46
50282;BME280;36176;51.506;10.272;2023-03-15T13:41:21;99578.81;;;4.53;68.48
50282;BME280;36176;51.506;10.272;2023-03-15T13:43:50;99574.91;;;4.72;69.35
50282;BME280;36176;51.506;10.272;2023-03-15T13:46:20;99572.47;;;5.02;70.39
50282;BME280;36176;51.506;10.272;2023-03-15T13:48:50;99572.84;;;4.86;70.56
50282;BME280;36176;51.506;10.272;2023-03-15T13:51:32;99571.66;;;4.59;70.21
50282;BME280;36176;51.506;10.272;2023-03-15T13:54:17;99578.00;;;4.47;70.34